sensor_id;sensor_type;location;lat;lon;timestamp;P1;durP1;ratioP1;P2;durP2;ratioP2
17369;SDS011;8802;52.402;4.920;2023-06-22T00:02:20;18.52;;;16.67;;
17369;SDS011;8802;52.402;4.920;2023-06-22T00:04:49;16.13;;;14.73;;
17369;SDS011;8802;52.402;4.920;2023-06-22T00:07:16;17.75;;;16.05;;
17369;SDS011;8802;52.402;4.920;2023-06-22T00:09:43;18.67;;;16.83;;
17369;SDS011;8802;52.402;4.920;2023-06-22T00:12:09;16.50;;;14.98;;
17369;SDS011;8802;52.402;4.920;2023-06-22T00:14:36;17.38;;;15.77;;
17369;SDS011;8802;52.402;4.920;2023-06-22T00:17:03;18.85;;;16.98;;
17369;SDS011;8802;52.402;4.920;2023-06-22T00:19:30;17.45;;;15.75;;
17369;SDS011;8802;52.402;4.920;2023-06-22T00:21:59;17.52;;;15.82;;
17369;SDS011;8802;52.402;4.920;2023-06-22T00:24:28;17.58;;;15.73;;
17369;SDS011;8802;52.402;4.920;2023-06-22T00:26:55;20.63;;;18.63;;
17369;SDS011;8802;52.402;4.920;2023-06-22T00:29:22;18.52;;;16.65;;
17369;SDS011;8802;52.402;4.920;2023-06-22T00:31:49;18.40;;;16.50;;
17369;SDS011;8802;52.402;4.920;2023-06-22T00:34:16;19.77;;;17.88;;
17369;SDS011;8802;52.402;4.920;2023-06-22T00:36:43;19.10;;;17.13;;
17369;SDS011;8802;52.402;4.920;2023-06-22T00:39:12;16.08;;;14.48;;
17369;SDS011;8802;52.402;4.920;2023-06-22T00:41:39;16.77;;;15.20;;
17369;SDS011;8802;52.402;4.920;2023-06-22T00:44:06;17.23;;;15.50;;
17369;SDS011;8802;52.402;4.920;2023-06-22T00:46:33;18.42;;;16.48;;
17369;SDS011;8802;52.402;4.920;2023-06-22T00:49:00;17.95;;;16.23;;
17369;SDS011;8802;52.402;4.920;2023-06-22T00:51:30;18.05;;;16.15;;
17369;SDS011;8802;52.402;4.920;2023-06-22T00:53:57;18.02;;;16.13;;
17369;SDS011;8802;52.402;4.920;2023-06-22T00:56:26;18.13;;;16.40;;
17369;SDS011;8802;52.402;4.920;2023-06-22T00:58:55;18.90;;;17.10;;
17369;SDS011;8802;52.402;4.920;2023-06-22T01:01:23;16.77;;;15.00;;
17369;SDS011;8802;52.402;4.920;2023-06-22T01:03:50;18.98;;;17.08;;
17369;SDS011;8802;52.402;4.920;2023-06-22T01:06:19;18.63;;;16.92;;
17369;SDS011;8802;52.402;4.920;2023-06-22T01:09:05;19.02;;;17.13;;
17369;SDS011;8802;52.402;4.920;2023-06-22T01:11:39;20.83;;;18.52;;
17369;SDS011;8802;52.402;4.920;2023-06-22T01:14:12;19.08;;;17.17;;
17369;SDS011;8802;52.402;4.920;2023-06-22T01:16:46;21.65;;;19.48;;
17369;SDS011;8802;52.402;4.920;2023-06-22T01:19:22;21.42;;;19.23;;
17369;SDS011;8802;52.402;4.920;2023-06-22T01:22:00;18.98;;;17.08;;
17369;SDS011;8802;52.402;4.920;2023-06-22T01:24:31;18.98;;;17.20;;
17369;SDS011;8802;52.402;4.920;2023-06-22T01:27:10;20.33;;;18.35;;
17369;SDS011;8802;52.402;4.920;2023-06-22T01:29:56;22.20;;;20.00;;
17369;SDS011;8802;52.402;4.920;2023-06-22T01:32:25;22.33;;;20.23;;
17369;SDS011;8802;52.402;4.920;2023-06-22T01:34:54;22.33;;;20.05;;
17369;SDS011;8802;52.402;4.920;2023-06-22T01:37:21;21.55;;;19.35;;
17369;SDS011;8802;52.402;4.920;2023-06-22T01:39:48;22.92;;;20.63;;
17369;SDS011;8802;52.402;4.920;2023-06-22T01:42:16;19.23;;;17.17;;
17369;SDS011;8802;52.402;4.920;2023-06-22T01:44:43;20.02;;;18.02;;
17369;SDS011;8802;52.402;4.920;2023-06-22T01:47:12;19.73;;;17.73;;
17369;SDS011;8802;52.402;4.920;2023-06-22T01:49:40;20.55;;;18.50;;
17369;SDS011;8802;52.402;4.920;2023-06-22T01:52:07;17.73;;;16.13;;
17369;SDS011;8802;52.402;4.920;2023-06-22T01:54:34;15.60;;;14.02;;
17369;SDS011;8802;52.402;4.920;2023-06-22T01:57:01;19.38;;;17.45;;
17369;SDS011;8802;52.402;4.920;2023-06-22T01:59:28;19.45;;;17.55;;
17369;SDS011;8802;52.402;4.920;2023-06-22T02:02:01;19.48;;;17.63;;
17369;SDS011;8802;52.402;4.920;2023-06-22T02:04:32;20.35;;;18.35;;
17369;SDS011;8802;52.402;4.920;2023-06-22T02:07:04;19.00;;;17.10;;
17369;SDS011;8802;52.402;4.920;2023-06-22T02:09:35;20.13;;;18.17;;
17369;SDS011;8802;52.402;4.920;2023-06-22T02:12:05;17.08;;;15.48;;
17369;SDS011;8802;52.402;4.920;2023-06-22T02:14:34;19.45;;;17.65;;
17369;SDS011;8802;52.402;4.920;2023-06-22T02:17:02;19.45;;;17.55;;
17369;SDS011;8802;52.402;4.920;2023-06-22T02:19:35;16.38;;;14.63;;
17369;SDS011;8802;52.402;4.920;2023-06-22T02:22:02;17.65;;;15.38;;
17369;SDS011;8802;52.402;4.920;2023-06-22T02:24:30;19.05;;;17.30;;
17369;SDS011;8802;52.402;4.920;2023-06-22T02:26:57;20.27;;;18.25;;
17369;SDS011;8802;52.402;4.920;2023-06-22T02:29:24;19.52;;;17.33;;
17369;SDS011;8802;52.402;4.920;2023-06-22T02:31:52;20.15;;;18.15;;
17369;SDS011;8802;52.402;4.920;2023-06-22T02:34:18;18.77;;;16.95;;
17369;SDS011;8802;52.402;4.920;2023-06-22T02:36:47;18.85;;;17.02;;
17369;SDS011;8802;52.402;4.920;2023-06-22T02:39:19;18.70;;;16.45;;
17369;SDS011;8802;52.402;4.920;2023-06-22T02:41:47;18.83;;;16.92;;
17369;SDS011;8802;52.402;4.920;2023-06-22T02:44:14;20.85;;;18.77;;
17369;SDS011;8802;52.402;4.920;2023-06-22T02:46:41;19.20;;;17.30;;
17369;SDS011;8802;52.402;4.920;2023-06-22T02:49:08;19.25;;;17.17;;
17369;SDS011;8802;52.402;4.920;2023-06-22T02:51:37;18.27;;;16.52;;
17369;SDS011;8802;52.402;4.920;2023-06-22T02:54:07;19.10;;;17.08;;
17369;SDS011;8802;52.402;4.920;2023-06-22T02:56:34;19.83;;;17.83;;
17369;SDS011;8802;52.402;4.920;2023-06-22T02:59:01;19.95;;;17.80;;
17369;SDS011;8802;52.402;4.920;2023-06-22T03:01:28;19.35;;;17.30;;
17369;SDS011;8802;52.402;4.920;2023-06-22T03:04:02;20.27;;;18.20;;
17369;SDS011;8802;52.402;4.920;2023-06-22T03:06:29;19.50;;;17.50;;
17369;SDS011;8802;52.402;4.920;2023-06-22T03:08:58;20.13;;;18.20;;
17369;SDS011;8802;52.402;4.920;2023-06-22T03:11:28;19.20;;;17.02;;
17369;SDS011;8802;52.402;4.920;2023-06-22T03:13:55;22.08;;;19.77;;
17369;SDS011;8802;52.402;4.920;2023-06-22T03:16:21;18.10;;;16.38;;
17369;SDS011;8802;52.402;4.920;2023-06-22T03:18:48;19.90;;;17.90;;
17369;SDS011;8802;52.402;4.920;2023-06-22T03:21:15;18.98;;;17.13;;
17369;SDS011;8802;52.402;4.920;2023-06-22T03:23:42;18.58;;;16.90;;
17369;SDS011;8802;52.402;4.920;2023-06-22T03:26:09;21.55;;;19.40;;
17369;SDS011;8802;52.402;4.920;2023-06-22T03:28:38;20.42;;;18.48;;
17369;SDS011;8802;52.402;4.920;2023-06-22T03:31:05;20.58;;;18.58;;
17369;SDS011;8802;52.402;4.920;2023-06-22T03:33:32;19.13;;;17.23;;
17369;SDS011;8802;52.402;4.920;2023-06-22T03:35:59;21.33;;;19.20;;
17369;SDS011;8802;52.402;4.920;2023-06-22T03:38:26;21.77;;;19.48;;
17369;SDS011;8802;52.402;4.920;2023-06-22T03:40:53;21.77;;;19.67;;
17369;SDS011;8802;52.402;4.920;2023-06-22T03:43:20;19.88;;;17.77;;
17369;SDS011;8802;52.402;4.920;2023-06-22T03:45:48;23.40;;;21.00;;
17369;SDS011;8802;52.402;4.920;2023-06-22T03:48:15;20.73;;;18.63;;
17369;SDS011;8802;52.402;4.920;2023-06-22T03:50:42;21.75;;;19.45;;
17369;SDS011;8802;52.402;4.920;2023-06-22T03:53:09;22.38;;;20.10;;
17369;SDS011;8802;52.402;4.920;2023-06-22T03:55:36;20.25;;;18.27;;
17369;SDS011;8802;52.402;4.920;2023-06-22T03:58:03;18.83;;;17.00;;
17369;SDS011;8802;52.402;4.920;2023-06-22T04:00:31;21.33;;;18.95;;
17369;SDS011;8802;52.402;4.920;2023-06-22T04:03:00;22.33;;;20.27;;
17369;SDS011;8802;52.402;4.920;2023-06-22T04:05:27;23.08;;;20.70;;
17369;SDS011;8802;52.402;4.920;2023-06-22T04:07:54;21.73;;;19.52;;
17369;SDS011;8802;52.402;4.920;2023-06-22T04:10:20;22.88;;;20.35;;
17369;SDS011;8802;52.402;4.920;2023-06-22T04:12:47;23.58;;;19.75;;
17369;SDS011;8802;52.402;4.920;2023-06-22T04:15:14;20.98;;;18.85;;
17369;SDS011;8802;52.402;4.920;2023-06-22T04:17:41;21.92;;;19.63;;
17369;SDS011;8802;52.402;4.920;2023-06-22T04:20:10;21.88;;;19.73;;
17369;SDS011;8802;52.402;4.920;2023-06-22T04:22:37;22.30;;;19.95;;
17369;SDS011;8802;52.402;4.920;2023-06-22T04:25:05;23.92;;;21.52;;
17369;SDS011;8802;52.402;4.920;2023-06-22T04:27:33;21.50;;;19.40;;
17369;SDS011;8802;52.402;4.920;2023-06-22T04:30:02;22.65;;;20.48;;
17369;SDS011;8802;52.402;4.920;2023-06-22T04:32:30;22.45;;;20.15;;
17369;SDS011;8802;52.402;4.920;2023-06-22T04:34:56;22.20;;;19.92;;
17369;SDS011;8802;52.402;4.920;2023-06-22T04:37:26;22.60;;;20.33;;
17369;SDS011;8802;52.402;4.920;2023-06-22T04:39:53;21.30;;;19.27;;
17369;SDS011;8802;52.402;4.920;2023-06-22T04:42:20;21.73;;;19.65;;
17369;SDS011;8802;52.402;4.920;2023-06-22T04:44:47;21.60;;;19.30;;
17369;SDS011;8802;52.402;4.920;2023-06-22T04:47:14;21.73;;;19.60;;
17369;SDS011;8802;52.402;4.920;2023-06-22T04:49:41;20.95;;;18.80;;
17369;SDS011;8802;52.402;4.920;2023-06-22T04:52:08;24.83;;;22.25;;
17369;SDS011;8802;52.402;4.920;2023-06-22T04:54:39;23.23;;;20.88;;
17369;SDS011;8802;52.402;4.920;2023-06-22T04:57:12;19.23;;;17.30;;
17369;SDS011;8802;52.402;4.920;2023-06-22T04:59:40;21.55;;;19.52;;
17369;SDS011;8802;52.402;4.920;2023-06-22T05:02:07;22.40;;;20.20;;
17369;SDS011;8802;52.402;4.920;2023-06-22T05:04:34;22.55;;;20.27;;
17369;SDS011;8802;52.402;4.920;2023-06-22T05:07:03;19.38;;;17.40;;
17369;SDS011;8802;52.402;4.920;2023-06-22T05:09:31;21.60;;;19.30;;
17369;SDS011;8802;52.402;4.920;2023-06-22T05:12:00;19.02;;;17.13;;
17369;SDS011;8802;52.402;4.920;2023-06-22T05:14:28;21.95;;;19.27;;
17369;SDS011;8802;52.402;4.920;2023-06-22T05:16:55;20.92;;;18.90;;
17369;SDS011;8802;52.402;4.920;2023-06-22T05:19:24;22.15;;;19.95;;
17369;SDS011;8802;52.402;4.920;2023-06-22T05:21:56;22.98;;;20.73;;
17369;SDS011;8802;52.402;4.920;2023-06-22T05:24:23;23.42;;;21.13;;
17369;SDS011;8802;52.402;4.920;2023-06-22T05:26:50;20.75;;;18.75;;
17369;SDS011;8802;52.402;4.920;2023-06-22T05:29:18;17.38;;;15.48;;
17369;SDS011;8802;52.402;4.920;2023-06-22T05:31:47;21.42;;;19.17;;
17369;SDS011;8802;52.402;4.920;2023-06-22T05:34:14;19.10;;;17.30;;
17369;SDS011;8802;52.402;4.920;2023-06-22T05:36:41;19.65;;;17.73;;
17369;SDS011;8802;52.402;4.920;2023-06-22T05:39:11;20.92;;;18.90;;
17369;SDS011;8802;52.402;4.920;2023-06-22T05:41:39;19.80;;;17.98;;
17369;SDS011;8802;52.402;4.920;2023-06-22T05:44:06;21.80;;;19.80;;
17369;SDS011;8802;52.402;4.920;2023-06-22T05:46:35;21.63;;;19.33;;
17369;SDS011;8802;52.402;4.920;2023-06-22T05:49:02;26.52;;;23.75;;
17369;SDS011;8802;52.402;4.920;2023-06-22T05:51:29;22.67;;;20.30;;
17369;SDS011;8802;52.402;4.920;2023-06-22T05:53:55;24.52;;;22.05;;
17369;SDS011;8802;52.402;4.920;2023-06-22T05:56:22;24.35;;;21.95;;
17369;SDS011;8802;52.402;4.920;2023-06-22T05:58:49;22.67;;;20.38;;
17369;SDS011;8802;52.402;4.920;2023-06-22T06:01:16;26.48;;;23.75;;
17369;SDS011;8802;52.402;4.920;2023-06-22T06:03:44;24.15;;;21.85;;
17369;SDS011;8802;52.402;4.920;2023-06-22T06:06:11;22.50;;;20.38;;
17369;SDS011;8802;52.402;4.920;2023-06-22T06:08:38;25.95;;;23.45;;
17369;SDS011;8802;52.402;4.920;2023-06-22T06:11:05;23.88;;;21.73;;
17369;SDS011;8802;52.402;4.920;2023-06-22T06:13:32;28.08;;;25.15;;
17369;SDS011;8802;52.402;4.920;2023-06-22T06:15:59;28.23;;;25.25;;
17369;SDS011;8802;52.402;4.920;2023-06-22T06:18:26;27.67;;;25.08;;
17369;SDS011;8802;52.402;4.920;2023-06-22T06:20:54;29.58;;;25.27;;
17369;SDS011;8802;52.402;4.920;2023-06-22T06:23:21;25.65;;;22.90;;
17369;SDS011;8802;52.402;4.920;2023-06-22T06:25:48;27.73;;;24.95;;
17369;SDS011;8802;52.402;4.920;2023-06-22T06:28:15;27.27;;;24.67;;
17369;SDS011;8802;52.402;4.920;2023-06-22T06:30:42;29.88;;;26.88;;
17369;SDS011;8802;52.402;4.920;2023-06-22T06:33:09;25.42;;;22.92;;
17369;SDS011;8802;52.402;4.920;2023-06-22T06:35:36;28.80;;;25.95;;
17369;SDS011;8802;52.402;4.920;2023-06-22T06:38:04;26.42;;;24.02;;
17369;SDS011;8802;52.402;4.920;2023-06-22T06:40:31;26.20;;;23.80;;
17369;SDS011;8802;52.402;4.920;2023-06-22T06:42:58;27.85;;;25.25;;
17369;SDS011;8802;52.402;4.920;2023-06-22T06:45:25;29.55;;;26.65;;
17369;SDS011;8802;52.402;4.920;2023-06-22T06:47:53;29.75;;;26.83;;
17369;SDS011;8802;52.402;4.920;2023-06-22T06:50:20;25.67;;;23.27;;
17369;SDS011;8802;52.402;4.920;2023-06-22T06:52:47;29.48;;;26.75;;
17369;SDS011;8802;52.402;4.920;2023-06-22T06:55:17;29.10;;;26.48;;
17369;SDS011;8802;52.402;4.920;2023-06-22T06:57:44;25.67;;;23.27;;
17369;SDS011;8802;52.402;4.920;2023-06-22T07:00:13;29.10;;;26.42;;
17369;SDS011;8802;52.402;4.920;2023-06-22T07:02:41;26.83;;;24.33;;
17369;SDS011;8802;52.402;4.920;2023-06-22T07:05:10;25.80;;;23.38;;
17369;SDS011;8802;52.402;4.920;2023-06-22T07:07:38;26.85;;;24.33;;
17369;SDS011;8802;52.402;4.920;2023-06-22T07:10:06;26.92;;;24.33;;
17369;SDS011;8802;52.402;4.920;2023-06-22T07:12:35;31.40;;;28.58;;
17369;SDS011;8802;52.402;4.920;2023-06-22T07:15:03;29.13;;;26.42;;
17369;SDS011;8802;52.402;4.920;2023-06-22T07:17:32;30.63;;;27.77;;
17369;SDS011;8802;52.402;4.920;2023-06-22T07:20:00;27.52;;;24.95;;
17369;SDS011;8802;52.402;4.920;2023-06-22T07:22:27;27.27;;;24.77;;
17369;SDS011;8802;52.402;4.920;2023-06-22T07:24:54;24.48;;;22.38;;
17369;SDS011;8802;52.402;4.920;2023-06-22T07:27:21;24.83;;;22.52;;
17369;SDS011;8802;52.402;4.920;2023-06-22T07:29:49;21.58;;;19.38;;
17369;SDS011;8802;52.402;4.920;2023-06-22T07:32:16;23.77;;;21.58;;
17369;SDS011;8802;52.402;4.920;2023-06-22T07:34:43;22.80;;;20.60;;
17369;SDS011;8802;52.402;4.920;2023-06-22T07:37:10;18.95;;;17.08;;
17369;SDS011;8802;52.402;4.920;2023-06-22T07:39:37;20.42;;;18.52;;
17369;SDS011;8802;52.402;4.920;2023-06-22T07:42:04;18.55;;;16.83;;
17369;SDS011;8802;52.402;4.920;2023-06-22T07:44:31;19.88;;;17.98;;
17369;SDS011;8802;52.402;4.920;2023-06-22T07:47:00;19.65;;;17.85;;
17369;SDS011;8802;52.402;4.920;2023-06-22T07:49:27;18.80;;;17.00;;
17369;SDS011;8802;52.402;4.920;2023-06-22T07:51:54;17.10;;;15.52;;
17369;SDS011;8802;52.402;4.920;2023-06-22T07:54:21;18.80;;;16.90;;
17369;SDS011;8802;52.402;4.920;2023-06-22T07:56:48;19.45;;;17.63;;
17369;SDS011;8802;52.402;4.920;2023-06-22T07:59:15;16.80;;;15.40;;
17369;SDS011;8802;52.402;4.920;2023-06-22T08:01:42;18.08;;;16.58;;
17369;SDS011;8802;52.402;4.920;2023-06-22T08:04:10;18.45;;;16.83;;
17369;SDS011;8802;52.402;4.920;2023-06-22T08:06:37;16.05;;;14.60;;
17369;SDS011;8802;52.402;4.920;2023-06-22T08:09:04;19.52;;;17.70;;
17369;SDS011;8802;52.402;4.920;2023-06-22T08:11:31;17.23;;;15.65;;
17369;SDS011;8802;52.402;4.920;2023-06-22T08:13:59;17.05;;;15.45;;
17369;SDS011;8802;52.402;4.920;2023-06-22T08:16:25;17.10;;;15.48;;
17369;SDS011;8802;52.402;4.920;2023-06-22T08:18:52;16.73;;;15.07;;
17369;SDS011;8802;52.402;4.920;2023-06-22T08:21:21;17.58;;;15.98;;
17369;SDS011;8802;52.402;4.920;2023-06-22T08:23:48;18.08;;;16.35;;
17369;SDS011;8802;52.402;4.920;2023-06-22T08:26:15;16.38;;;14.73;;
17369;SDS011;8802;52.402;4.920;2023-06-22T08:28:42;18.00;;;15.88;;
17369;SDS011;8802;52.402;4.920;2023-06-22T08:31:09;17.38;;;15.52;;
17369;SDS011;8802;52.402;4.920;2023-06-22T08:33:39;17.52;;;15.95;;
17369;SDS011;8802;52.402;4.920;2023-06-22T08:36:05;17.40;;;15.70;;
17369;SDS011;8802;52.402;4.920;2023-06-22T08:38:34;19.85;;;17.90;;
17369;SDS011;8802;52.402;4.920;2023-06-22T08:41:01;18.88;;;17.13;;
17369;SDS011;8802;52.402;4.920;2023-06-22T08:43:28;18.67;;;16.77;;
17369;SDS011;8802;52.402;4.920;2023-06-22T08:45:55;17.08;;;15.52;;
17369;SDS011;8802;52.402;4.920;2023-06-22T08:48:22;18.05;;;16.20;;
17369;SDS011;8802;52.402;4.920;2023-06-22T08:50:49;17.85;;;16.20;;
17369;SDS011;8802;52.402;4.920;2023-06-22T08:53:16;19.23;;;17.42;;
17369;SDS011;8802;52.402;4.920;2023-06-22T08:55:44;19.92;;;18.13;;
17369;SDS011;8802;52.402;4.920;2023-06-22T08:58:11;19.50;;;17.80;;
17369;SDS011;8802;52.402;4.920;2023-06-22T09:00:38;16.83;;;15.02;;
17369;SDS011;8802;52.402;4.920;2023-06-22T09:03:05;19.30;;;17.30;;
17369;SDS011;8802;52.402;4.920;2023-06-22T09:05:32;21.33;;;19.33;;
17369;SDS011;8802;52.402;4.920;2023-06-22T09:07:59;21.55;;;19.75;;
17369;SDS011;8802;52.402;4.920;2023-06-22T09:10:25;22.95;;;20.77;;
17369;SDS011;8802;52.402;4.920;2023-06-22T09:12:54;24.45;;;22.15;;
17369;SDS011;8802;52.402;4.920;2023-06-22T09:15:21;20.75;;;18.85;;
17369;SDS011;8802;52.402;4.920;2023-06-22T09:17:48;21.60;;;19.40;;
17369;SDS011;8802;52.402;4.920;2023-06-22T09:20:15;24.05;;;21.90;;
17369;SDS011;8802;52.402;4.920;2023-06-22T09:22:42;20.92;;;18.90;;
17369;SDS011;8802;52.402;4.920;2023-06-22T09:25:09;22.38;;;20.15;;
17369;SDS011;8802;52.402;4.920;2023-06-22T09:27:36;23.50;;;21.45;;
17369;SDS011;8802;52.402;4.920;2023-06-22T09:30:05;24.35;;;21.52;;
17369;SDS011;8802;52.402;4.920;2023-06-22T09:32:33;19.65;;;17.90;;
17369;SDS011;8802;52.402;4.920;2023-06-22T09:35:01;22.17;;;20.23;;
17369;SDS011;8802;52.402;4.920;2023-06-22T09:37:30;19.98;;;18.08;;
17369;SDS011;8802;52.402;4.920;2023-06-22T09:39:57;24.30;;;22.00;;
17369;SDS011;8802;52.402;4.920;2023-06-22T09:42:24;22.55;;;20.50;;
17369;SDS011;8802;52.402;4.920;2023-06-22T09:44:51;20.52;;;18.60;;
17369;SDS011;8802;52.402;4.920;2023-06-22T09:47:19;22.80;;;20.92;;
17369;SDS011;8802;52.402;4.920;2023-06-22T09:49:46;22.92;;;20.90;;
17369;SDS011;8802;52.402;4.920;2023-06-22T09:52:13;22.25;;;20.17;;
17369;SDS011;8802;52.402;4.920;2023-06-22T09:54:40;21.13;;;19.13;;
17369;SDS011;8802;52.402;4.920;2023-06-22T09:57:07;19.67;;;17.98;;
17369;SDS011;8802;52.402;4.920;2023-06-22T09:59:33;19.25;;;17.52;;
17369;SDS011;8802;52.402;4.920;2023-06-22T10:02:00;18.70;;;17.08;;
17369;SDS011;8802;52.402;4.920;2023-06-22T10:04:29;18.95;;;17.20;;
17369;SDS011;8802;52.402;4.920;2023-06-22T10:06:55;17.73;;;15.90;;
17369;SDS011;8802;52.402;4.920;2023-06-22T10:09:22;20.02;;;18.25;;
17369;SDS011;8802;52.402;4.920;2023-06-22T10:11:49;18.60;;;16.80;;
17369;SDS011;8802;52.402;4.920;2023-06-22T10:14:16;16.65;;;15.23;;
17369;SDS011;8802;52.402;4.920;2023-06-22T10:16:43;16.40;;;14.93;;
17369;SDS011;8802;52.402;4.920;2023-06-22T10:19:10;17.52;;;15.98;;
17369;SDS011;8802;52.402;4.920;2023-06-22T10:21:38;17.77;;;16.17;;
17369;SDS011;8802;52.402;4.920;2023-06-22T10:24:05;16.58;;;15.23;;
17369;SDS011;8802;52.402;4.920;2023-06-22T10:26:33;18.90;;;17.08;;
17369;SDS011;8802;52.402;4.920;2023-06-22T10:29:01;16.52;;;14.98;;
17369;SDS011;8802;52.402;4.920;2023-06-22T10:31:28;18.63;;;15.52;;
17369;SDS011;8802;52.402;4.920;2023-06-22T10:33:55;16.60;;;14.98;;
17369;SDS011;8802;52.402;4.920;2023-06-22T10:36:22;16.40;;;15.00;;
17369;SDS011;8802;52.402;4.920;2023-06-22T10:38:51;18.40;;;16.80;;
17369;SDS011;8802;52.402;4.920;2023-06-22T10:41:18;18.67;;;16.77;;
17369;SDS011;8802;52.402;4.920;2023-06-22T10:43:45;19.15;;;17.42;;
17369;SDS011;8802;52.402;4.920;2023-06-22T10:46:12;18.65;;;16.85;;
17369;SDS011;8802;52.402;4.920;2023-06-22T10:48:39;15.07;;;13.70;;
17369;SDS011;8802;52.402;4.920;2023-06-22T10:51:06;17.48;;;15.60;;
17369;SDS011;8802;52.402;4.920;2023-06-22T10:53:33;15.82;;;14.43;;
17369;SDS011;8802;52.402;4.920;2023-06-22T10:56:01;14.30;;;13.10;;
17369;SDS011;8802;52.402;4.920;2023-06-22T10:58:28;14.65;;;13.35;;
17369;SDS011;8802;52.402;4.920;2023-06-22T11:00:55;16.88;;;15.38;;
17369;SDS011;8802;52.402;4.920;2023-06-22T11:03:21;17.13;;;15.43;;
17369;SDS011;8802;52.402;4.920;2023-06-22T11:05:48;16.83;;;15.27;;
17369;SDS011;8802;52.402;4.920;2023-06-22T11:08:15;17.33;;;15.73;;
17369;SDS011;8802;52.402;4.920;2023-06-22T11:10:43;17.42;;;15.90;;
17369;SDS011;8802;52.402;4.920;2023-06-22T11:13:11;16.42;;;15.02;;
17369;SDS011;8802;52.402;4.920;2023-06-22T11:15:38;18.17;;;16.55;;
17369;SDS011;8802;52.402;4.920;2023-06-22T11:18:05;17.88;;;16.23;;
17369;SDS011;8802;52.402;4.920;2023-06-22T11:20:32;15.85;;;14.43;;
17369;SDS011;8802;52.402;4.920;2023-06-22T11:23:03;15.07;;;13.88;;
17369;SDS011;8802;52.402;4.920;2023-06-22T11:25:31;16.40;;;15.00;;
17369;SDS011;8802;52.402;4.920;2023-06-22T11:27:59;14.63;;;13.43;;
17369;SDS011;8802;52.402;4.920;2023-06-22T11:30:29;15.68;;;14.07;;
17369;SDS011;8802;52.402;4.920;2023-06-22T11:32:56;15.98;;;14.48;;
17369;SDS011;8802;52.402;4.920;2023-06-22T11:35:23;15.57;;;14.20;;
17369;SDS011;8802;52.402;4.920;2023-06-22T11:37:50;16.75;;;15.25;;
17369;SDS011;8802;52.402;4.920;2023-06-22T11:40:17;15.77;;;14.48;;
17369;SDS011;8802;52.402;4.920;2023-06-22T11:42:44;13.45;;;12.35;;
17369;SDS011;8802;52.402;4.920;2023-06-22T11:45:11;15.82;;;14.45;;
17369;SDS011;8802;52.402;4.920;2023-06-22T11:47:39;16.70;;;15.20;;
17369;SDS011;8802;52.402;4.920;2023-06-22T11:50:06;16.40;;;14.82;;
17369;SDS011;8802;52.402;4.920;2023-06-22T11:52:34;14.95;;;13.68;;
17369;SDS011;8802;52.402;4.920;2023-06-22T11:55:02;15.43;;;13.93;;
17369;SDS011;8802;52.402;4.920;2023-06-22T11:57:32;15.18;;;13.68;;
17369;SDS011;8802;52.402;4.920;2023-06-22T11:59:59;15.73;;;14.35;;
17369;SDS011;8802;52.402;4.920;2023-06-22T12:02:26;15.43;;;14.02;;
17369;SDS011;8802;52.402;4.920;2023-06-22T12:04:55;14.80;;;13.48;;
17369;SDS011;8802;52.402;4.920;2023-06-22T12:07:23;15.85;;;14.45;;
17369;SDS011;8802;52.402;4.920;2023-06-22T12:09:50;15.40;;;13.90;;
17369;SDS011;8802;52.402;4.920;2023-06-22T12:12:17;15.00;;;13.65;;
17369;SDS011;8802;52.402;4.920;2023-06-22T12:14:44;15.52;;;14.13;;
17369;SDS011;8802;52.402;4.920;2023-06-22T12:17:11;14.57;;;13.18;;
17369;SDS011;8802;52.402;4.920;2023-06-22T12:19:38;12.00;;;11.05;;
17369;SDS011;8802;52.402;4.920;2023-06-22T12:22:06;12.25;;;11.05;;
17369;SDS011;8802;52.402;4.920;2023-06-22T12:24:33;12.80;;;11.63;;
17369;SDS011;8802;52.402;4.920;2023-06-22T12:27:00;13.52;;;12.32;;
17369;SDS011;8802;52.402;4.920;2023-06-22T12:29:28;12.85;;;11.73;;
17369;SDS011;8802;52.402;4.920;2023-06-22T12:31:55;12.95;;;11.85;;
17369;SDS011;8802;52.402;4.920;2023-06-22T12:34:22;12.63;;;11.35;;
17369;SDS011;8802;52.402;4.920;2023-06-22T12:36:49;13.20;;;11.98;;
17369;SDS011;8802;52.402;4.920;2023-06-22T12:39:17;11.48;;;10.40;;
17369;SDS011;8802;52.402;4.920;2023-06-22T12:41:44;13.15;;;11.90;;
17369;SDS011;8802;52.402;4.920;2023-06-22T12:44:11;12.32;;;11.23;;
17369;SDS011;8802;52.402;4.920;2023-06-22T12:46:38;11.75;;;10.85;;
17369;SDS011;8802;52.402;4.920;2023-06-22T12:49:05;12.13;;;10.93;;
17369;SDS011;8802;52.402;4.920;2023-06-22T12:51:32;12.20;;;11.15;;
17369;SDS011;8802;52.402;4.920;2023-06-22T12:53:59;11.32;;;10.38;;
17369;SDS011;8802;52.402;4.920;2023-06-22T12:56:27;11.52;;;10.52;;
17369;SDS011;8802;52.402;4.920;2023-06-22T12:58:54;10.52;;;9.50;;
17369;SDS011;8802;52.402;4.920;2023-06-22T13:01:22;11.50;;;10.40;;
17369;SDS011;8802;52.402;4.920;2023-06-22T13:03:49;11.95;;;10.75;;
17369;SDS011;8802;52.402;4.920;2023-06-22T13:06:16;11.70;;;10.60;;
17369;SDS011;8802;52.402;4.920;2023-06-22T13:08:43;12.27;;;10.90;;
17369;SDS011;8802;52.402;4.920;2023-06-22T13:11:10;10.45;;;9.43;;
17369;SDS011;8802;52.402;4.920;2023-06-22T13:13:38;10.43;;;9.40;;
17369;SDS011;8802;52.402;4.920;2023-06-22T13:16:05;11.15;;;10.13;;
17369;SDS011;8802;52.402;4.920;2023-06-22T13:18:32;13.27;;;12.07;;
17369;SDS011;8802;52.402;4.920;2023-06-22T13:21:00;12.05;;;10.95;;
17369;SDS011;8802;52.402;4.920;2023-06-22T13:23:27;10.98;;;9.98;;
17369;SDS011;8802;52.402;4.920;2023-06-22T13:25:54;10.25;;;9.40;;
17369;SDS011;8802;52.402;4.920;2023-06-22T13:28:21;10.30;;;9.38;;
17369;SDS011;8802;52.402;4.920;2023-06-22T13:30:50;10.20;;;9.20;;
17369;SDS011;8802;52.402;4.920;2023-06-22T13:33:17;10.60;;;9.70;;
17369;SDS011;8802;52.402;4.920;2023-06-22T13:35:44;8.98;;;8.18;;
17369;SDS011;8802;52.402;4.920;2023-06-22T13:38:10;11.75;;;10.57;;
17369;SDS011;8802;52.402;4.920;2023-06-22T13:40:37;9.32;;;8.55;;
17369;SDS011;8802;52.402;4.920;2023-06-22T13:43:04;10.23;;;9.25;;
17369;SDS011;8802;52.402;4.920;2023-06-22T13:45:31;10.57;;;9.68;;
17369;SDS011;8802;52.402;4.920;2023-06-22T13:48:00;10.57;;;9.68;;
17369;SDS011;8802;52.402;4.920;2023-06-22T13:50:27;10.75;;;9.60;;
17369;SDS011;8802;52.402;4.920;2023-06-22T13:52:55;10.25;;;9.25;;
17369;SDS011;8802;52.402;4.920;2023-06-22T13:55:22;10.45;;;8.95;;
17369;SDS011;8802;52.402;4.920;2023-06-22T13:57:49;10.85;;;9.90;;
17369;SDS011;8802;52.402;4.920;2023-06-22T14:00:17;12.55;;;10.02;;
17369;SDS011;8802;52.402;4.920;2023-06-22T14:02:44;9.30;;;8.50;;
17369;SDS011;8802;52.402;4.920;2023-06-22T14:05:13;7.47;;;6.78;;
17369;SDS011;8802;52.402;4.920;2023-06-22T14:07:40;8.75;;;7.20;;
17369;SDS011;8802;52.402;4.920;2023-06-22T14:10:07;8.50;;;7.68;;
17369;SDS011;8802;52.402;4.920;2023-06-22T14:12:34;7.57;;;6.60;;
17369;SDS011;8802;52.402;4.920;2023-06-22T14:15:01;9.63;;;6.90;;
17369;SDS011;8802;52.402;4.920;2023-06-22T14:17:28;7.57;;;6.70;;
17369;SDS011;8802;52.402;4.920;2023-06-22T14:19:55;7.43;;;6.82;;
17369;SDS011;8802;52.402;4.920;2023-06-22T14:22:23;6.82;;;6.15;;
17369;SDS011;8802;52.402;4.920;2023-06-22T14:24:52;6.80;;;5.93;;
17369;SDS011;8802;52.402;4.920;2023-06-22T14:27:19;7.88;;;6.50;;
17369;SDS011;8802;52.402;4.920;2023-06-22T14:29:46;8.27;;;7.47;;
17369;SDS011;8802;52.402;4.920;2023-06-22T14:32:12;7.18;;;6.47;;
17369;SDS011;8802;52.402;4.920;2023-06-22T14:34:39;8.52;;;7.07;;
17369;SDS011;8802;52.402;4.920;2023-06-22T14:37:07;6.45;;;5.95;;
17369;SDS011;8802;52.402;4.920;2023-06-22T14:39:36;8.57;;;7.78;;